Terminal Aerodrome Forecast
Issued by NWS Twin Cities, MN

Home | Current Version | Previous Version | Graphics & Text | Print | Product List | Glossary On
Versions: 1 2 3 4 5 6 7 8 9 10 11 12 13 14 15
000
FTUS43 KMPX 230902 AAA
TAFSTC
TAF AMD
KSTC 230902Z 2309/2406 12005KT 3SM -SN BR OVC012
      TEMPO 2310/2312 6SM BR
     FM231200 27004KT P6SM OVC012
     FM231600 30009KT P6SM SCT015
     FM240100 29005KT P6SM SKC=

USA.gov is the U.S. government's official web portal to all federal, state and local government web resources and services.